Ryoho Maru No.2 — JD2964 — position and weather

sailwx.info

Track history (hours):
 
Tides and Currents Weather Stations Pressure Air Temp Water Temp Dewpoint Dewpoint Depression Visibility Wind Speed Wind Dir Waves Ship Positions

Ryoho Maru No.2

Last reported at 2015-Mar-23 20:07 UTC. Time now 2015-Mar-29 04:29 UTC.
Position N 35°43' E 140°54'.

Length 57 m; draft 4 m.

Type: Tanker. MMSI: 431001062.

Date/timePositionNaut miles runAvg speedWind from/ knotsBaromVisibWave heightAir tempDewpointWater temp
2015-Mar-23 20:07N 35°43' E 140°54'5 8.1
2015-Mar-23 19:32N 35°38' E 140°52'9 9.1
2015-Mar-23 18:31N 35°31' E 140°45'9 9.2
2015-Mar-23 17:34N 35°24' E 140°38'10 8.8
2015-Mar-23 16:28N 35°17' E 140°31'20 9.4
2015-Mar-23 14:17N 35°02' E 140°13'910.3
2015-Mar-23 13:23N 34°57' E 140°04'7 8.6
2015-Mar-23 12:30N 34°52' E 139°57'8 8.6
2015-Mar-23 11:32N 34°54' E 139°47'9 9.6
2015-Mar-23 10:33N 35°04' E 139°45'10 9.9
2015-Mar-23 09:33N 35°14' E 139°46'9 9.0
2015-Mar-23 08:33N 35°22' E 139°43'9 9.0
2015-Mar-23 07:33N 35°29' E 139°50'9 9.0
2015-Mar-23 06:33N 35°28' E 140°01'0 0.2
2015-Mar-23 05:20N 35°28' E 140°01'0 0.0
2015-Mar-23 04:26N 35°28' E 140°01'0 0.4
2015-Mar-23 03:33N 35°29' E 140°01'3 3.4
2015-Mar-23 02:34N 35°29' E 139°57'8 7.8
2015-Mar-23 01:34N 35°30' E 139°47'2 2.2
2015-Mar-23 00:29N 35°32' E 139°45'1 0.7
2015-Mar-22 23:33N 35°31' E 139°46'2 1.5
2015-Mar-22 22:13N 35°29' E 139°47'0 0.0
2015-Mar-22 21:31N 35°29' E 139°47'0 0.0
2015-Mar-22 20:31N 35°29' E 139°47'0 0.0
2015-Mar-22 19:31N 35°29' E 139°47'0 0.0
2015-Mar-22 18:31N 35°29' E 139°47'0 0.0
2015-Mar-22 17:31N 35°29' E 139°47'0 0.1
2015-Mar-22 16:31N 35°29' E 139°47'0 0.0
2015-Mar-22 15:31N 35°29' E 139°47'0 0.0
2015-Mar-22 14:31N 35°29' E 139°47'0 0.0
2015-Mar-22 13:28N 35°29' E 139°47'0 0.0
2015-Mar-22 12:31N 35°29' E 139°47'0 0.0
2015-Mar-22 11:31N 35°29' E 139°47'0 0.0
2015-Mar-22 10:31N 35°29' E 139°47'0 0.0
2015-Mar-22 09:25N 35°29' E 139°47'0 0.0
2015-Mar-22 08:25N 35°29' E 139°47'0 0.1
2015-Mar-22 07:28N 35°29' E 139°47'0 0.0
2015-Mar-22 06:31N 35°29' E 139°47'0 0.0
2015-Mar-22 05:31N 35°29' E 139°47'0 0.0
2015-Mar-22 04:25N 35°29' E 139°47'0 0.1
2015-Mar-22 03:28N 35°29' E 139°47'0 0.0
2015-Mar-22 02:31N 35°29' E 139°47'0 0.0
2015-Mar-22 01:28N 35°29' E 139°47'0 0.0
2015-Mar-22 00:25N 35°29' E 139°47'0 0.0
2015-Mar-21 23:31N 35°29' E 139°47'0 0.0
2015-Mar-21 22:32N 35°29' E 139°47'0 0.0
2015-Mar-21 21:19N 35°29' E 139°47'0 0.0
2015-Mar-21 20:28N 35°29' E 139°47'0 0.0
2015-Mar-21 19:28N 35°29' E 139°47'0 0.0
2015-Mar-21 18:25N 35°29' E 139°47'0 0.0
2015-Mar-21 17:31N 35°29' E 139°47'0 0.0
2015-Mar-21 16:31N 35°29' E 139°47'0 0.0
2015-Mar-21 15:28N 35°29' E 139°47'0 0.1
2015-Mar-21 14:31N 35°29' E 139°47'0 0.0
2015-Mar-21 13:31N 35°29' E 139°47'0 0.0
2015-Mar-21 12:31N 35°29' E 139°47'0 0.0
2015-Mar-21 11:31N 35°29' E 139°47'0 0.0
2015-Mar-21 10:31N 35°29' E 139°47'0 0.0
2015-Mar-21 09:31N 35°29' E 139°47'0 0.0
2015-Mar-21 08:28N 35°29' E 139°47'0 0.0
2015-Mar-21 07:31N 35°29' E 139°47'0 0.0
2015-Mar-21 06:31N 35°29' E 139°47'0 0.0
2015-Mar-21 05:28N 35°29' E 139°47'0 0.0
2015-Mar-21 04:28N 35°29' E 139°47'0 0.0
2015-Mar-21 03:31N 35°29' E 139°47'1 0.7
2015-Mar-21 02:34N 35°29' E 139°47'10 9.6
2015-Mar-21 01:33N 35°19' E 139°44'9 8.7
2015-Mar-21 00:33N 35°11' E 139°46'10 9.6
2015-Mar-20 23:33N 35°03' E 139°40'  
2015-Mar-16 15:25N 34°51' E 139°38'  
Track history (hours):
 
Tides and Currents Weather Stations Pressure Air Temp Water Temp Dewpoint Dewpoint Depression Visibility Wind Speed Wind Dir Waves Ship Positions

Ryoho Maru No.2

Last reported at 2015-Mar-23 20:07 UTC. Time now 2015-Mar-29 04:29 UTC.
Position N 35°43' E 140°54'.

Length 57 m; draft 4 m.

Type: Tanker. MMSI: 431001062.

Date/timePositionNaut miles runAvg speedWind from/ knotsBaromVisibWave heightAir tempDewpointWater temp
2015-Mar-23 20:07N 35°43' E 140°54'5 8.1
2015-Mar-23 19:32N 35°38' E 140°52'9 9.1
2015-Mar-23 18:31N 35°31' E 140°45'9 9.2
2015-Mar-23 17:34N 35°24' E 140°38'10 8.8
2015-Mar-23 16:28N 35°17' E 140°31'20 9.4
2015-Mar-23 14:17N 35°02' E 140°13'910.3
2015-Mar-23 13:23N 34°57' E 140°04'7 8.6
2015-Mar-23 12:30N 34°52' E 139°57'8 8.6
2015-Mar-23 11:32N 34°54' E 139°47'9 9.6
2015-Mar-23 10:33N 35°04' E 139°45'10 9.9
2015-Mar-23 09:33N 35°14' E 139°46'9 9.0
2015-Mar-23 08:33N 35°22' E 139°43'9 9.0
2015-Mar-23 07:33N 35°29' E 139°50'9 9.0
2015-Mar-23 06:33N 35°28' E 140°01'0 0.2
2015-Mar-23 05:20N 35°28' E 140°01'0 0.0
2015-Mar-23 04:26N 35°28' E 140°01'0 0.4
2015-Mar-23 03:33N 35°29' E 140°01'3 3.4
2015-Mar-23 02:34N 35°29' E 139°57'8 7.8
2015-Mar-23 01:34N 35°30' E 139°47'2 2.2
2015-Mar-23 00:29N 35°32' E 139°45'1 0.7
2015-Mar-22 23:33N 35°31' E 139°46'2 1.5
2015-Mar-22 22:13N 35°29' E 139°47'0 0.0
2015-Mar-22 21:31N 35°29' E 139°47'0 0.0
2015-Mar-22 20:31N 35°29' E 139°47'0 0.0
2015-Mar-22 19:31N 35°29' E 139°47'0 0.0
2015-Mar-22 18:31N 35°29' E 139°47'0 0.0
2015-Mar-22 17:31N 35°29' E 139°47'0 0.1
2015-Mar-22 16:31N 35°29' E 139°47'0 0.0
2015-Mar-22 15:31N 35°29' E 139°47'0 0.0
2015-Mar-22 14:31N 35°29' E 139°47'0 0.0
2015-Mar-22 13:28N 35°29' E 139°47'0 0.0
2015-Mar-22 12:31N 35°29' E 139°47'0 0.0
2015-Mar-22 11:31N 35°29' E 139°47'0 0.0
2015-Mar-22 10:31N 35°29' E 139°47'0 0.0
2015-Mar-22 09:25N 35°29' E 139°47'0 0.0
2015-Mar-22 08:25N 35°29' E 139°47'0 0.1
2015-Mar-22 07:28N 35°29' E 139°47'0 0.0
2015-Mar-22 06:31N 35°29' E 139°47'0 0.0
2015-Mar-22 05:31N 35°29' E 139°47'0 0.0
2015-Mar-22 04:25N 35°29' E 139°47'0 0.1
2015-Mar-22 03:28N 35°29' E 139°47'0 0.0
2015-Mar-22 02:31N 35°29' E 139°47'0 0.0
2015-Mar-22 01:28N 35°29' E 139°47'0 0.0
2015-Mar-22 00:25N 35°29' E 139°47'0 0.0
2015-Mar-21 23:31N 35°29' E 139°47'0 0.0
2015-Mar-21 22:32N 35°29' E 139°47'0 0.0
2015-Mar-21 21:19N 35°29' E 139°47'0 0.0
2015-Mar-21 20:28N 35°29' E 139°47'0 0.0
2015-Mar-21 19:28N 35°29' E 139°47'0 0.0
2015-Mar-21 18:25N 35°29' E 139°47'0 0.0
2015-Mar-21 17:31N 35°29' E 139°47'0 0.0
2015-Mar-21 16:31N 35°29' E 139°47'0 0.0
2015-Mar-21 15:28N 35°29' E 139°47'0 0.1
2015-Mar-21 14:31N 35°29' E 139°47'0 0.0
2015-Mar-21 13:31N 35°29' E 139°47'0 0.0
2015-Mar-21 12:31N 35°29' E 139°47'0 0.0
2015-Mar-21 11:31N 35°29' E 139°47'0 0.0
2015-Mar-21 10:31N 35°29' E 139°47'0 0.0
2015-Mar-21 09:31N 35°29' E 139°47'0 0.0
2015-Mar-21 08:28N 35°29' E 139°47'0 0.0
2015-Mar-21 07:31N 35°29' E 139°47'0 0.0
2015-Mar-21 06:31N 35°29' E 139°47'0 0.0
2015-Mar-21 05:28N 35°29' E 139°47'0 0.0
2015-Mar-21 04:28N 35°29' E 139°47'0 0.0
2015-Mar-21 03:31N 35°29' E 139°47'1 0.7
2015-Mar-21 02:34N 35°29' E 139°47'10 9.6
2015-Mar-21 01:33N 35°19' E 139°44'9 8.7
2015-Mar-21 00:33N 35°11' E 139°46'10 9.6
2015-Mar-20 23:33N 35°03' E 139°40'  
2015-Mar-16 15:25N 34°51' E 139°38'  

Dump ship's entire track history